Time;durP1;ratioP1;P1;durP2;ratioP2;P2;SDS_P1;SDS_P2;PMS_P1;PMS_P2;Temp;Humidity;BMP_temperature;BMP_pressure;BME280_temperature;BME280_humidity;BME280_pressure;Samples;Min_cycle;Max_cycle;Signal;HPM_P1;HPM_P2
2023/05/10 00:01:44;;;;;;;16.17;12.88;;;;;;;16.65;76.92;100778.47;7390354;19;20389;-47
2023/05/10 00:04:11;;;;;;;14.73;11.88;;;;;;;16.66;77.16;100780.97;7391341;19;20023;-49
2023/05/10 00:06:38;;;;;;;14.32;11.88;;;;;;;16.64;76.84;100774.13;7389840;19;20019;-49
2023/05/10 00:09:05;;;;;;;13.50;10.82;;;;;;;16.68;76.66;100772.81;7390244;19;20118;-49
2023/05/10 00:11:32;;;;;;;14.00;10.80;;;;;;;16.67;76.28;100771.94;7393033;19;20022;-50
2023/05/10 00:13:59;;;;;;;13.90;11.77;;;;;;;16.38;77.10;100771.31;7390961;19;20487;-51
2023/05/10 00:16:26;;;;;;;13.60;10.30;;;;;;;16.24;77.42;100770.00;7390644;19;20044;-49
2023/05/10 00:18:54;;;;;;;14.20;10.40;;;;;;;16.42;76.70;100754.81;7390487;19;20088;-50
2023/05/10 00:21:21;;;;;;;14.88;10.60;;;;;;;16.56;75.83;100762.34;7389264;19;20026;-51
2023/05/10 00:23:48;;;;;;;13.07;10.30;;;;;;;16.41;76.11;100761.19;7389280;19;20364;-50
2023/05/10 00:26:16;;;;;;;13.38;10.13;;;;;;;16.21;76.92;100767.59;7390236;19;20483;-51
2023/05/10 00:28:43;;;;;;;13.95;10.45;;;;;;;16.13;76.67;100768.34;7390115;19;20023;-50
2023/05/10 00:31:10;;;;;;;11.48;8.73;;;;;;;16.28;75.45;100760.69;7389719;19;20125;-51
2023/05/10 00:33:37;;;;;;;11.93;8.57;;;;;;;16.39;74.13;100755.13;7391199;19;20454;-47
2023/05/10 00:36:07;;;;;;;12.82;8.32;;;;;;;16.44;73.64;100750.16;7390188;19;20034;-54
2023/05/10 00:38:34;;;;;;;13.38;9.13;;;;;;;16.30;73.46;100756.03;7389849;19;20022;-48
2023/05/10 00:41:01;;;;;;;11.38;7.80;;;;;;;16.12;73.78;100756.00;7387489;19;20034;-50
2023/05/10 00:43:28;;;;;;;9.90;6.35;;;;;;;16.28;72.69;100748.16;7391154;19;20019;-46
2023/05/10 00:45:55;;;;;;;8.50;5.55;;;;;;;16.21;70.24;100754.25;7389135;19;20020;-47
2023/05/10 00:48:22;;;;;;;11.18;5.63;;;;;;;16.13;68.75;100746.97;7389399;19;20090;-48
2023/05/10 00:50:50;;;;;;;9.45;5.07;;;;;;;16.21;68.36;100754.25;7387598;19;20036;-47
2023/05/10 00:53:17;;;;;;;7.35;5.25;;;;;;;16.19;67.68;100749.06;7390474;19;20572;-49
2023/05/10 00:55:44;;;;;;;7.07;4.65;;;;;;;16.14;67.58;100748.69;7389639;19;20022;-50
2023/05/10 00:58:12;;;;;;;7.72;4.40;;;;;;;16.05;67.43;100750.41;7390354;19;20023;-48
2023/05/10 01:00:41;;;;;;;7.38;3.88;;;;;;;15.83;66.56;100754.31;7388324;19;20023;-48
2023/05/10 01:03:10;;;;;;;8.57;3.72;;;;;;;15.82;66.35;100749.09;7389717;19;20014;-49
2023/05/10 01:05:38;;;;;;;5.35;3.20;;;;;;;15.82;65.40;100741.09;7389486;19;20031;-48
2023/05/10 01:08:06;;;;;;;7.95;3.72;;;;;;;15.80;64.59;100740.41;7390114;19;20014;-47
2023/05/10 01:10:33;;;;;;;7.47;3.35;;;;;;;15.68;64.17;100744.25;7387794;19;21171;-50
2023/05/10 01:13:00;;;;;;;5.90;3.40;;;;;;;15.65;63.90;100734.72;7392223;19;20025;-50
2023/05/10 01:15:27;;;;;;;6.07;3.28;;;;;;;15.69;63.17;100740.59;7394871;19;20044;-51
2023/05/10 01:17:56;;;;;;;7.65;3.20;;;;;;;15.63;62.62;100725.97;7395822;19;20019;-51
2023/05/10 01:20:24;;;;;;;6.18;3.20;;;;;;;15.70;62.07;100737.78;7394984;19;20233;-52
2023/05/10 01:23:18;;;;;;;4.68;2.60;;;;;;;15.83;60.64;100730.28;7397434;19;20040;-50
2023/05/10 01:26:13;;;;;;;4.82;2.80;;;;;;;15.89;60.78;100728.00;7396919;19;20123;-52
2023/05/10 01:28:49;;;;;;;6.10;2.80;;;;;;;15.76;61.04;100733.69;7396281;19;20083;-52
2023/05/10 01:31:53;;;;;;;5.88;2.97;;;;;;;15.74;59.18;100731.16;7392420;19;20022;-51
2023/05/10 01:34:27;;;;;;;7.43;2.70;;;;;;;15.65;59.69;100737.38;7396200;19;20491;-50
2023/05/10 01:37:09;;;;;;;;;;;;;;;15.63;57.48;100735.81;7395743;19;20028;-51
2023/05/10 01:40:02;;;;;;;4.68;2.67;;;;;;;15.70;58.47;100735.09;7393519;19;19922;-51
2023/05/10 01:42:38;;;;;;;5.47;2.60;;;;;;;15.75;58.69;100724.81;7396406;19;20018;-51
2023/05/10 01:45:16;;;;;;;5.13;2.80;;;;;;;15.68;58.56;100730.88;7393664;19;20512;-50
2023/05/10 01:48:05;;;;;;;6.40;3.22;;;;;;;15.73;57.53;100726.81;7396462;19;20019;-51
2023/05/10 01:50:35;;;;;;;4.50;2.50;;;;;;;15.59;58.15;100729.91;7394240;19;20047;-49
2023/05/10 01:53:05;;;;;;;4.78;2.50;;;;;;;15.62;58.31;100721.63;7396383;19;20401;-51
2023/05/10 01:55:39;;;;;;;6.40;3.03;;;;;;;15.63;57.91;100723.28;7395918;19;20214;-49
2023/05/10 01:58:10;;;;;;;6.05;3.03;;;;;;;15.69;57.61;100728.09;7393986;19;20523;-48
2023/05/10 02:00:42;;;;;;;4.53;2.65;;;;;;;15.69;57.35;100719.25;7393813;19;20368;-47
2023/05/10 02:03:11;;;;;;;6.15;2.67;;;;;;;15.67;57.38;100719.38;7396098;19;20043;-50
2023/05/10 02:05:41;;;;;;;6.55;2.55;;;;;;;15.74;56.61;100719.63;7394927;19;20011;-47
2023/05/10 02:08:09;;;;;;;4.38;2.75;;;;;;;15.79;56.29;100717.34;7393722;19;20034;-50
2023/05/10 02:10:38;;;;;;;6.93;2.72;;;;;;;15.84;55.65;100720.44;7393317;19;20019;-49
2023/05/10 02:13:08;;;;;;;5.57;2.75;;;;;;;15.70;55.69;100719.09;7395495;19;20039;-47
2023/05/10 02:15:38;;;;;;;4.97;2.60;;;;;;;15.75;55.69;100714.13;7392840;19;20514;-51
2023/05/10 02:18:06;;;;;;;6.85;2.60;;;;;;;15.76;55.60;100707.81;7393337;19;20014;-47
2023/05/10 02:20:35;;;;;;;6.70;2.75;;;;;;;15.89;54.99;100717.31;7391438;19;20428;-46
2023/05/10 02:23:03;;;;;;;6.28;2.90;;;;;;;15.82;54.18;100709.88;7394554;19;20018;-50
2023/05/10 02:25:32;;;;;;;5.82;2.72;;;;;;;15.79;53.62;100712.84;7392607;19;20019;-50
2023/05/10 02:28:02;;;;;;;5.15;2.95;;;;;;;15.75;53.78;100713.28;7394340;19;20035;-50
2023/05/10 02:30:32;;;;;;;5.45;2.70;;;;;;;15.64;54.44;100724.97;7393084;19;20022;-50
2023/05/10 02:33:00;;;;;;;7.55;2.65;;;;;;;15.68;54.52;100721.06;7394817;19;20019;-47
2023/05/10 02:35:27;;;;;;;6.05;2.75;;;;;;;15.68;54.76;100718.41;7393731;19;20019;-48
2023/05/10 02:37:57;;;;;;;5.03;2.95;;;;;;;15.72;54.81;100716.25;7394675;19;20487;-48
2023/05/10 02:40:27;;;;;;;6.18;2.92;;;;;;;15.77;54.73;100716.69;7390180;19;20023;-51
2023/05/10 02:42:56;;;;;;;5.93;2.70;;;;;;;15.70;54.82;100715.56;7397876;19;20032;-50
2023/05/10 02:45:30;;;;;;;6.47;2.58;;;;;;;15.83;54.73;100710.72;7391288;19;20082;-47
2023/05/10 02:47:58;;;;;;;7.25;2.85;;;;;;;15.67;55.21;100722.03;7394201;19;20025;-51
2023/05/10 02:50:28;;;;;;;6.82;3.10;;;;;;;15.69;55.27;100714.75;7392623;19;20039;-48
2023/05/10 02:53:03;;;;;;;5.90;3.00;;;;;;;15.70;54.52;100713.75;7394518;19;20011;-48
2023/05/10 02:55:36;;;;;;;7.47;2.97;;;;;;;15.80;53.96;100714.56;7393519;19;20015;-51
2023/05/10 02:58:03;;;;;;;5.88;3.13;;;;;;;15.89;53.26;100720.00;7393315;19;20503;-52
2023/05/10 03:00:31;;;;;;;6.80;2.97;;;;;;;15.90;52.86;100719.00;7392189;19;20011;-51
2023/05/10 03:02:58;;;;;;;6.35;2.58;;;;;;;15.91;53.36;100713.53;7393312;19;20010;-48
2023/05/10 03:05:25;;;;;;;7.57;3.28;;;;;;;15.88;53.75;100715.66;7393334;19;20035;-48
2023/05/10 03:07:54;;;;;;;6.97;3.10;;;;;;;15.88;54.19;100710.31;7391862;19;20042;-47
2023/05/10 03:10:28;;;;;;;6.13;2.97;;;;;;;15.74;55.73;100714.28;7392301;19;20078;-47
2023/05/10 03:13:14;;;;;;;6.47;3.03;;;;;;;15.66;56.46;100722.19;7391509;19;20506;-46
2023/05/10 03:16:07;;;;;;;6.07;3.30;;;;;;;15.62;56.00;100726.97;7393046;19;20039;-48
2023/05/10 03:19:11;;;;;;;7.20;3.17;;;;;;;15.47;56.86;100723.09;7391685;19;20022;-47
2023/05/10 03:21:41;;;;;;;;;;;;;;;15.34;56.86;100720.75;7390488;19;20044;-48
2023/05/10 03:24:12;;;;;;;4.85;3.13;;;;;;;15.36;57.13;100718.75;7392810;19;19985;-50
2023/05/10 03:26:41;;;;;;;7.53;3.08;;;;;;;15.47;56.90;100718.56;7386486;19;20045;-50
2023/05/10 03:29:10;;;;;;;8.38;3.13;;;;;;;15.40;56.99;100719.31;7391720;19;20033;-51
2023/05/10 03:31:38;;;;;;;7.30;3.22;;;;;;;15.44;56.91;100716.19;7391427;19;20027;-49
2023/05/10 03:34:06;;;;;;;8.48;3.40;;;;;;;15.38;57.04;100714.13;7392360;19;20043;-47
2023/05/10 03:36:33;;;;;;;6.53;3.28;;;;;;;15.42;56.90;100712.00;7390342;19;20018;-47
2023/05/10 03:39:00;;;;;;;6.57;3.67;;;;;;;15.48;56.90;100714.06;7392087;19;20397;-51
2023/05/10 03:41:28;;;;;;;5.80;3.00;;;;;;;15.47;57.42;100713.25;7391119;19;20374;-48
2023/05/10 03:43:55;;;;;;;9.93;3.35;;;;;;;15.43;57.46;100717.19;7392424;19;20018;-52
2023/05/10 03:46:22;;;;;;;10.70;3.67;;;;;;;15.39;58.11;100714.97;7389595;19;20094;-50
2023/05/10 03:48:49;;;;;;;6.80;3.65;;;;;;;15.38;57.94;100714.13;7391709;19;20022;-52
2023/05/10 03:51:16;;;;;;;6.15;3.33;;;;;;;15.42;57.62;100706.66;7390152;19;20089;-51
2023/05/10 03:53:43;;;;;;;7.30;3.17;;;;;;;15.40;57.95;100701.47;7391535;19;20017;-50
2023/05/10 03:56:10;;;;;;;6.65;3.60;;;;;;;15.25;58.58;100711.75;7388091;19;20015;-51
2023/05/10 03:58:37;;;;;;;6.80;3.20;;;;;;;15.28;58.85;100711.47;7391526;19;20014;-51
2023/05/10 04:01:04;;;;;;;7.00;3.58;;;;;;;15.39;58.99;100715.81;7389945;19;20030;-51
2023/05/10 04:03:31;;;;;;;9.82;3.60;;;;;;;15.19;59.29;100714.19;7392073;19;20085;-51
2023/05/10 04:06:02;;;;;;;6.30;3.40;;;;;;;15.10;59.97;100710.53;7389510;19;20047;-51
2023/05/10 04:08:29;;;;;;;9.30;3.80;;;;;;;15.23;59.29;100711.06;7391115;19;20024;-52
2023/05/10 04:11:09;;;;;;;6.63;3.70;;;;;;;15.12;59.63;100711.25;7389949;19;20029;-48
2023/05/10 04:13:37;;;;;;;8.00;4.00;;;;;;;15.08;60.42;100708.00;7391390;19;20018;-48
2023/05/10 04:16:04;;;;;;;9.27;3.63;;;;;;;15.09;60.25;100709.69;7391163;19;20014;-50
2023/05/10 04:18:31;;;;;;;9.55;3.83;;;;;;;14.87;61.43;100710.00;7390671;19;20025;-47
2023/05/10 04:20:58;;;;;;;10.93;4.15;;;;;;;14.78;62.96;100713.53;7390660;19;20085;-47
2023/05/10 04:23:27;;;;;;;8.68;3.92;;;;;;;14.83;62.36;100720.09;7392680;19;20089;-47
2023/05/10 04:26:01;;;;;;;6.93;3.83;;;;;;;14.91;62.85;100721.22;7390647;19;20078;-48
2023/05/10 04:28:28;;;;;;;;;;;;;;;14.77;62.36;100718.03;7390789;19;20021;-51
2023/05/10 04:31:05;;;;;;;6.45;3.60;;;;;;;14.68;62.59;100718.84;7388794;19;19926;-49
2023/05/10 04:33:33;;;;;;;6.82;4.10;;;;;;;14.92;61.42;100715.75;7387440;19;20025;-50
2023/05/10 04:36:00;;;;;;;7.20;4.28;;;;;;;14.92;61.40;100713.09;7387735;19;20038;-48
2023/05/10 04:38:27;;;;;;;7.57;3.80;;;;;;;14.98;61.18;100725.00;7387922;19;20127;-49
2023/05/10 04:41:03;;;;;;;6.93;4.05;;;;;;;15.16;60.74;100717.13;7383761;19;20025;-51
2023/05/10 04:43:30;;;;;;;8.15;4.40;;;;;;;15.05;61.33;100726.13;7389939;19;20024;-47
2023/05/10 04:45:57;;;;;;;9.25;4.38;;;;;;;14.86;62.14;100719.81;7390153;19;20010;-48
2023/05/10 04:48:24;;;;;;;8.25;4.55;;;;;;;14.72;62.85;100728.25;7399937;19;20018;-47
2023/05/10 04:50:51;;;;;;;8.85;4.90;;;;;;;14.73;63.42;100729.94;7395911;19;20019;-51
2023/05/10 04:53:18;;;;;;;9.90;4.35;;;;;;;14.87;62.77;100734.84;7398493;19;20099;-50
2023/05/10 04:55:46;;;;;;;8.68;4.43;;;;;;;14.91;63.76;100737.22;7399260;19;20011;-50
2023/05/10 04:58:13;;;;;;;9.75;4.38;;;;;;;15.00;63.94;100739.91;7400306;19;20487;-50
2023/05/10 05:00:41;;;;;;;8.70;4.57;;;;;;;14.92;64.11;100741.56;7398062;19;20476;-49
2023/05/10 05:03:08;;;;;;;9.93;4.68;;;;;;;14.90;64.12;100762.22;7395169;19;20027;-47
2023/05/10 05:05:35;;;;;;;9.25;5.10;;;;;;;14.86;63.46;100764.31;7395254;19;20021;-50
2023/05/10 05:08:02;;;;;;;8.02;4.60;;;;;;;14.94;63.21;100768.94;7397925;19;20021;-50
2023/05/10 05:10:30;;;;;;;12.18;4.97;;;;;;;14.85;64.00;100763.47;7394896;19;20021;-51
2023/05/10 05:12:57;;;;;;;8.73;4.80;;;;;;;14.88;63.96;100759.66;7395717;19;20018;-49
2023/05/10 05:15:24;;;;;;;9.00;4.75;;;;;;;14.86;63.98;100770.50;7394810;19;20018;-53
2023/05/10 05:17:51;;;;;;;8.82;5.22;;;;;;;14.82;64.03;100768.25;7401298;19;20082;-48
2023/05/10 05:20:18;;;;;;;9.82;5.13;;;;;;;14.76;63.96;100761.63;7399042;19;20026;-48
2023/05/10 05:22:45;;;;;;;6.70;4.60;;;;;;;14.81;64.72;100759.41;7394244;19;20018;-48
2023/05/10 05:25:12;;;;;;;10.38;4.43;;;;;;;14.82;65.09;100769.09;7396473;19;20014;-52
2023/05/10 05:27:39;;;;;;;9.10;4.93;;;;;;;14.91;64.81;100770.06;7399345;19;20362;-50
2023/05/10 05:30:07;;;;;;;8.02;4.97;;;;;;;14.80;65.57;100772.88;7395473;19;20015;-49
2023/05/10 05:32:34;;;;;;;9.30;5.10;;;;;;;14.66;66.07;100770.63;7396752;19;20011;-51
2023/05/10 05:35:01;;;;;;;10.85;5.30;;;;;;;14.69;66.30;100773.88;7398196;19;20343;-51
2023/05/10 05:37:28;;;;;;;8.45;4.63;;;;;;;14.79;66.13;100771.19;7396488;19;20018;-49
2023/05/10 05:39:55;;;;;;;10.10;5.43;;;;;;;14.75;66.81;100767.97;7398665;19;20022;-50
2023/05/10 05:42:22;;;;;;;9.95;5.20;;;;;;;14.82;67.47;100781.56;7394364;19;20021;-49
2023/05/10 05:44:49;;;;;;;9.32;5.00;;;;;;;14.82;67.99;100782.41;7395985;19;20014;-49
2023/05/10 05:47:17;;;;;;;10.38;4.63;;;;;;;14.78;68.37;100774.84;7396177;19;20014;-54
2023/05/10 05:49:45;;;;;;;8.90;5.07;;;;;;;14.73;69.30;100774.41;7395097;19;20027;-51
2023/05/10 05:52:12;;;;;;;10.77;5.50;;;;;;;14.47;70.76;100776.75;7395920;19;20546;-50
2023/05/10 05:54:39;;;;;;;7.72;5.03;;;;;;;14.25;71.62;100778.66;7398615;19;20029;-51
2023/05/10 05:57:07;;;;;;;9.13;5.22;;;;;;;14.33;70.48;100783.31;7399081;19;20025;-49
2023/05/10 05:59:34;;;;;;;10.45;5.38;;;;;;;14.37;70.83;100784.72;7393488;19;20014;-51
2023/05/10 06:02:01;;;;;;;10.15;5.10;;;;;;;14.56;70.89;100789.25;7395137;19;20018;-48
2023/05/10 06:04:28;;;;;;;7.53;4.72;;;;;;;14.60;71.24;100796.84;7395329;19;20037;-52
2023/05/10 06:06:55;;;;;;;9.13;5.85;;;;;;;14.55;71.65;100800.91;7394822;19;20455;-51
2023/05/10 06:09:24;;;;;;;8.65;5.90;;;;;;;14.20;73.57;100804.03;7393204;19;20007;-52
2023/05/10 06:11:51;;;;;;;12.27;5.80;;;;;;;14.18;73.87;100796.16;7392961;19;20014;-51
2023/05/10 06:14:20;;;;;;;11.30;5.90;;;;;;;14.29;73.76;100806.69;7394504;19;20538;-51
2023/05/10 06:16:47;;;;;;;8.48;5.57;;;;;;;14.36;73.80;100815.00;7393646;19;20106;-52
2023/05/10 06:19:14;;;;;;;9.35;5.65;;;;;;;14.56;73.21;100813.25;7394261;19;20082;-50
2023/05/10 06:21:41;;;;;;;10.38;5.80;;;;;;;14.64;72.77;100816.06;7390883;19;20026;-50
2023/05/10 06:24:08;;;;;;;9.05;5.63;;;;;;;14.58;73.03;100820.13;7394519;19;20019;-51
2023/05/10 06:26:35;;;;;;;9.20;5.97;;;;;;;14.67;73.44;100814.97;7394602;19;20642;-49
2023/05/10 06:29:03;;;;;;;9.93;5.57;;;;;;;14.74;73.57;100816.09;7393053;19;20392;-51
2023/05/10 06:31:30;;;;;;;10.95;6.90;;;;;;;14.48;74.60;100813.06;7392729;19;20696;-49
2023/05/10 06:33:57;;;;;;;14.30;7.30;;;;;;;14.50;74.40;100817.31;7392376;19;20358;-50
2023/05/10 06:36:26;;;;;;;11.50;6.90;;;;;;;14.31;75.64;100831.41;7394668;19;20050;-50
2023/05/10 06:38:53;;;;;;;10.80;6.63;;;;;;;14.47;75.49;100835.38;7394221;19;20082;-52
2023/05/10 06:41:20;;;;;;;14.25;6.05;;;;;;;14.66;74.86;100824.78;7392745;19;20026;-53
2023/05/10 06:43:50;;;;;;;11.43;5.65;;;;;;;14.58;75.17;100832.63;7394202;19;20014;-53
2023/05/10 06:46:17;;;;;;;10.20;6.30;;;;;;;14.44;75.25;100841.81;7393655;19;20029;-50
2023/05/10 06:48:44;;;;;;;12.85;6.50;;;;;;;14.45;75.34;100840.81;7393520;19;20023;-50
2023/05/10 06:51:11;;;;;;;12.65;6.75;;;;;;;14.56;75.01;100838.06;7393069;19;20078;-52
2023/05/10 06:53:38;;;;;;;10.18;6.18;;;;;;;14.62;74.97;100837.53;7393790;19;20023;-52
2023/05/10 06:56:05;;;;;;;10.85;6.28;;;;;;;14.76;74.71;100838.94;7393031;19;20146;-51
2023/05/10 06:58:32;;;;;;;13.30;6.95;;;;;;;14.69;74.97;100837.84;7393030;19;20035;-51
2023/05/10 07:01:04;;;;;;;12.18;6.38;;;;;;;14.80;74.91;100836.84;7390972;19;20023;-52
2023/05/10 07:03:31;;;;;;;12.38;6.70;;;;;;;14.69;75.37;100847.63;7391960;19;20011;-57
2023/05/10 07:06:03;;;;;;;10.65;6.93;;;;;;;14.80;75.30;100852.84;7393355;19;20021;-53
2023/05/10 07:08:31;;;;;;;11.52;7.38;;;;;;;14.71;75.86;100857.19;7393481;19;20014;-52
2023/05/10 07:11:03;;;;;;;9.88;6.35;;;;;;;15.00;75.45;100854.56;7385319;19;20021;-53
2023/05/10 07:13:31;;;;;;;11.68;7.20;;;;;;;15.02;75.20;100860.59;7393506;19;20094;-49
2023/05/10 07:16:00;;;;;;;10.32;6.57;;;;;;;15.11;75.71;100859.78;7391197;19;20018;-53
2023/05/10 07:18:27;;;;;;;9.25;6.35;;;;;;;15.18;75.85;100867.19;7393053;19;20018;-53
2023/05/10 07:20:54;;;;;;;13.10;6.47;;;;;;;15.21;75.95;100880.25;7391665;19;20018;-54
2023/05/10 07:23:21;;;;;;;10.48;6.32;;;;;;;15.29;76.19;100877.72;7391689;19;20018;-50
2023/05/10 07:25:51;;;;;;;9.80;6.50;;;;;;;15.29;76.33;100873.25;7391679;19;20031;-51
2023/05/10 07:28:18;;;;;;;11.15;7.07;;;;;;;15.27;76.81;100879.72;7391964;19;20014;-52
2023/05/10 07:30:46;;;;;;;12.02;7.00;;;;;;;15.47;75.81;100880.53;7388205;19;20035;-51
2023/05/10 07:33:14;;;;;;;12.23;6.78;;;;;;;15.58;75.79;100886.56;7390624;19;20085;-53
2023/05/10 07:35:42;;;;;;;10.82;6.07;;;;;;;15.69;75.65;100880.28;7390053;19;20329;-50
2023/05/10 07:38:10;;;;;;;12.68;6.75;;;;;;;15.76;75.81;100878.72;7392694;19;20032;-52
2023/05/10 07:40:39;;;;;;;9.27;6.28;;;;;;;15.60;76.20;100889.09;7391074;19;20011;-52
2023/05/10 07:43:06;;;;;;;10.07;6.53;;;;;;;15.53;77.16;100890.63;7390757;19;20011;-51
2023/05/10 07:45:33;;;;;;;9.02;5.68;;;;;;;15.46;77.10;100890.38;7392092;19;20061;-51
2023/05/10 07:48:00;;;;;;;8.90;5.40;;;;;;;15.42;77.63;100893.47;7391573;19;20033;-54
2023/05/10 07:50:28;;;;;;;8.23;5.00;;;;;;;15.47;77.35;100886.72;7390684;19;20018;-50
2023/05/10 07:52:55;;;;;;;8.30;5.13;;;;;;;15.57;77.26;100887.56;7391541;19;20015;-53
2023/05/10 07:55:22;;;;;;;7.57;4.93;;;;;;;15.60;77.35;100889.94;7391038;19;20783;-52
2023/05/10 07:57:49;;;;;;;5.97;4.03;;;;;;;15.61;77.38;100893.47;7391631;19;20011;-52
2023/05/10 08:00:20;;;;;;;6.50;3.63;;;;;;;15.75;76.71;100893.03;7389114;19;20047;-52
2023/05/10 08:02:47;;;;;;;5.78;3.88;;;;;;;15.79;76.66;100902.44;7390170;19;20041;-53
2023/05/10 08:05:14;;;;;;;5.93;3.22;;;;;;;15.98;75.95;100904.22;7391344;19;20043;-52
2023/05/10 08:07:42;;;;;;;4.63;3.05;;;;;;;16.23;74.89;100905.44;7391746;19;20030;-53
2023/05/10 08:10:10;;;;;;;5.38;3.30;;;;;;;16.26;74.79;100909.66;7389841;19;20043;-52
2023/05/10 08:12:38;;;;;;;6.22;3.30;;;;;;;16.28;74.97;100900.47;7392382;19;20018;-51
2023/05/10 08:15:06;;;;;;;5.93;3.40;;;;;;;16.33;74.41;100900.91;7388808;19;20026;-49
2023/05/10 08:17:33;;;;;;;5.35;3.33;;;;;;;16.52;73.80;100912.47;7391847;19;20022;-49
2023/05/10 08:20:01;;;;;;;5.13;3.10;;;;;;;16.55;73.37;100910.34;7389610;19;20019;-52
2023/05/10 08:22:28;;;;;;;4.30;3.20;;;;;;;16.56;73.11;100911.22;7389422;19;20015;-49
2023/05/10 08:24:55;;;;;;;5.38;2.95;;;;;;;16.61;73.28;100913.44;7388761;19;20022;-51
2023/05/10 08:27:22;;;;;;;8.88;3.45;;;;;;;16.56;73.42;100912.06;7390971;19;20017;-53
2023/05/10 08:29:49;;;;;;;5.55;3.05;;;;;;;16.63;73.47;100911.44;7388983;19;20025;-51
2023/05/10 08:32:17;;;;;;;5.38;3.25;;;;;;;16.60;73.24;100917.09;7391316;19;20019;-50
2023/05/10 08:34:44;;;;;;;4.68;3.17;;;;;;;16.64;73.38;100916.66;7389911;19;20106;-49
2023/05/10 08:37:12;;;;;;;5.25;3.38;;;;;;;16.62;73.28;100907.09;7389233;19;20022;-53
2023/05/10 08:39:40;;;;;;;4.68;3.13;;;;;;;16.50;73.86;100917.16;7389929;19;20014;-52
2023/05/10 08:42:09;;;;;;;6.30;3.22;;;;;;;16.48;73.83;100913.78;7389287;19;20043;-52
2023/05/10 08:44:36;;;;;;;4.90;3.25;;;;;;;16.40;74.01;100916.34;7388613;19;20014;-52
2023/05/10 08:47:07;;;;;;;9.93;3.53;;;;;;;16.42;74.07;100917.88;7390235;19;20524;-54
2023/05/10 08:49:34;;;;;;;5.40;3.55;;;;;;;16.72;73.82;100919.44;7389698;19;20043;-50
2023/05/10 08:52:04;;;;;;;4.13;2.92;;;;;;;16.93;72.64;100919.19;7389991;19;20019;-50
2023/05/10 08:54:32;;;;;;;4.63;2.78;;;;;;;16.99;71.56;100923.97;7390274;19;20040;-51
2023/05/10 08:56:59;;;;;;;3.70;2.55;;;;;;;17.04;71.03;100926.16;7390209;19;20033;-50
2023/05/10 08:59:27;;;;;;;4.55;2.25;;;;;;;17.03;70.47;100932.53;7389261;19;20019;-52
2023/05/10 09:02:00;;;;;;;4.32;2.08;;;;;;;17.03;70.16;100935.19;7386465;19;20019;-51
2023/05/10 09:04:29;;;;;;;3.83;2.00;;;;;;;17.08;70.10;100930.22;7389279;19;20093;-50
2023/05/10 09:06:57;;;;;;;3.13;1.70;;;;;;;17.19;69.76;100939.88;7389725;19;20103;-52
2023/05/10 09:09:25;;;;;;;3.58;1.70;;;;;;;17.09;69.28;100947.97;7389018;19;20491;-52
2023/05/10 09:11:53;;;;;;;3.67;2.20;;;;;;;16.95;69.23;100940.47;7388321;19;20404;-50
2023/05/10 09:14:21;;;;;;;3.90;2.10;;;;;;;16.92;69.66;100954.97;7387318;19;20397;-53
2023/05/10 09:16:49;;;;;;;3.53;2.10;;;;;;;16.96;69.03;100958.19;7388356;19;20014;-50
2023/05/10 09:19:16;;;;;;;2.40;1.80;;;;;;;17.06;69.20;100950.97;7388688;19;20025;-52
2023/05/10 09:21:43;;;;;;;2.55;1.75;;;;;;;17.14;69.08;100953.72;7388114;19;20130;-51
2023/05/10 09:24:10;;;;;;;2.65;1.80;;;;;;;17.28;69.05;100955.88;7387626;19;20078;-51
2023/05/10 09:26:47;;;;;;;2.88;1.75;;;;;;;17.39;68.99;100956.63;7387365;19;20019;-52
2023/05/10 09:29:15;;;;;;;3.13;1.65;;;;;;;17.16;69.00;100959.75;7388375;19;20029;-52
2023/05/10 09:31:46;;;;;;;4.55;1.80;;;;;;;17.20;69.75;100958.44;7386550;19;20026;-49
2023/05/10 09:34:22;;;;;;;4.25;1.60;;;;;;;17.11;69.98;100962.03;7391556;19;20018;-49
2023/05/10 09:37:02;;;;;;;3.17;1.80;;;;;;;16.97;69.77;100970.56;7396736;19;20099;-49
2023/05/10 09:39:31;;;;;;;2.50;1.63;;;;;;;16.96;69.94;100974.25;7394073;19;20032;-47
2023/05/10 09:42:04;;;;;;;3.75;1.90;;;;;;;17.01;69.88;100971.94;7396778;19;20027;-48
2023/05/10 09:44:34;;;;;;;4.32;2.25;;;;;;;16.95;69.66;100975.25;7392763;19;20022;-48
2023/05/10 09:47:02;;;;;;;3.65;2.25;;;;;;;17.02;69.66;100968.31;7396425;19;20023;-48
2023/05/10 09:49:29;;;;;;;5.63;2.85;;;;;;;17.22;69.05;100969.03;7395518;19;20014;-51
2023/05/10 09:52:02;;;;;;;4.40;3.10;;;;;;;17.25;69.02;100969.56;7392803;19;20086;-51
2023/05/10 09:54:30;;;;;;;4.83;2.80;;;;;;;17.34;68.83;100977.69;7396075;19;20040;-56
2023/05/10 09:56:57;;;;;;;5.30;3.60;;;;;;;17.35;68.73;100980.19;7395401;19;20015;-53
2023/05/10 09:59:28;;;;;;;4.93;3.40;;;;;;;17.26;68.85;100984.63;7393631;19;20015;-53
2023/05/10 10:01:57;;;;;;;5.80;3.33;;;;;;;17.06;69.20;100985.75;7393060;19;20115;-51
2023/05/10 10:04:25;;;;;;;4.97;3.38;;;;;;;17.08;68.74;100986.44;7392919;19;20021;-52
2023/05/10 10:07:03;;;;;;;4.72;3.22;;;;;;;17.38;68.01;100981.72;7395305;19;20085;-51
2023/05/10 10:09:32;;;;;;;5.47;3.08;;;;;;;17.33;68.05;100979.53;7393200;19;20031;-54
2023/05/10 10:12:00;;;;;;;5.30;3.15;;;;;;;17.15;68.74;100986.69;7393101;19;20029;-50
2023/05/10 10:14:28;;;;;;;7.80;3.67;;;;;;;17.06;69.46;100988.41;7395211;19;20018;-52
2023/05/10 10:16:56;;;;;;;6.03;4.00;;;;;;;17.00;69.72;100994.34;7394258;19;20014;-50
2023/05/10 10:19:35;;;;;;;7.47;4.28;;;;;;;17.07;69.67;100999.97;7394830;19;20022;-50
2023/05/10 10:22:03;;;;;;;7.10;4.07;;;;;;;17.33;69.08;101005.44;7395078;19;20015;-52
2023/05/10 10:24:30;;;;;;;5.20;3.65;;;;;;;17.44;68.94;100999.88;7392780;19;20047;-50
2023/05/10 10:27:07;;;;;;;5.50;3.13;;;;;;;17.53;68.43;100994.44;7394433;19;20019;-52
2023/05/10 10:29:58;;;;;;;3.42;3.00;;;;;;;17.65;67.48;100995.06;7392363;19;20494;-52
2023/05/10 10:32:55;;;;;;;5.20;2.70;;;;;;;17.75;67.43;101000.38;7395546;19;20015;-52
2023/05/10 10:35:22;;;;;;;3.22;2.30;;;;;;;17.78;68.04;100992.88;7394479;19;20018;-52
2023/05/10 10:37:50;;;;;;;2.75;2.00;;;;;;;17.72;67.83;100996.13;7394664;19;20018;-50
2023/05/10 10:40:28;;;;;;;3.53;2.13;;;;;;;17.84;67.15;100995.94;7392898;19;20029;-49
2023/05/10 10:43:25;;;;;;;3.38;1.88;;;;;;;17.87;66.55;100988.41;7394004;19;20039;-52
2023/05/10 10:46:16;;;;;;;2.85;1.92;;;;;;;17.91;65.47;100995.16;7393188;19;20022;-52
2023/05/10 10:48:51;;;;;;;3.33;2.10;;;;;;;17.99;65.48;100991.69;7393116;19;20023;-52
2023/05/10 10:51:18;;;;;;;5.53;2.75;;;;;;;18.10;65.26;100996.81;7391188;19;20021;-51
2023/05/10 10:53:47;;;;;;;5.65;2.80;;;;;;;18.18;65.39;100990.66;7395095;19;20022;-53
2023/05/10 10:56:15;;;;;;;6.57;3.42;;;;;;;18.10;65.95;100986.09;7393536;19;20120;-51
2023/05/10 10:58:51;;;;;;;5.65;3.22;;;;;;;18.22;65.67;100989.34;7393179;19;20082;-53
2023/05/10 11:01:19;;;;;;;5.47;3.08;;;;;;;18.26;65.02;100996.09;7390018;19;20006;-50
2023/05/10 11:03:58;;;;;;;4.35;2.58;;;;;;;18.20;64.64;100997.56;7392747;19;20014;-49
2023/05/10 11:06:31;;;;;;;4.57;2.60;;;;;;;18.12;64.45;101005.53;7392819;19;20023;-51
2023/05/10 11:08:59;;;;;;;3.15;2.80;;;;;;;18.00;65.01;100999.56;7393750;19;20510;-50
2023/05/10 11:11:26;;;;;;;5.78;3.22;;;;;;;17.89;65.73;100997.13;7391637;19;20069;-51
2023/05/10 11:14:03;;;;;;;4.38;3.10;;;;;;;17.86;65.80;101004.63;7392904;19;20563;-50
2023/05/10 11:16:43;;;;;;;5.65;3.33;;;;;;;17.92;65.97;101006.72;7392227;19;20026;-50
2023/05/10 11:19:12;;;;;;;4.32;3.28;;;;;;;18.07;65.70;101010.53;7393248;19;20082;-51
2023/05/10 11:22:05;;;;;;;4.35;3.15;;;;;;;18.34;64.39;101008.69;7391172;19;20082;-50
2023/05/10 11:24:33;;;;;;;4.68;2.95;;;;;;;18.36;64.49;101007.56;7390942;19;20018;-52
2023/05/10 11:27:00;;;;;;;6.00;3.15;;;;;;;18.38;64.92;101010.91;7390779;19;20085;-50
2023/05/10 11:29:27;;;;;;;4.30;2.90;;;;;;;18.21;64.95;101011.81;7392909;19;20101;-53
2023/05/10 11:31:58;;;;;;;4.93;3.50;;;;;;;18.01;65.85;101013.84;7389987;19;20534;-50
2023/05/10 11:34:27;;;;;;;4.47;3.25;;;;;;;17.94;65.99;101013.59;7392611;19;20031;-51
2023/05/10 11:36:56;;;;;;;3.92;3.13;;;;;;;17.84;66.47;101010.16;7390655;19;20015;-52